createdAt,value
2017-12-16T00:00:03.623Z,40.40
2017-12-16T00:02:32.025Z,50.27
2017-12-16T00:05:00.428Z,45.50
2017-12-16T00:07:28.807Z,38.27
2017-12-16T00:09:57.217Z,42.80
2017-12-16T00:12:25.584Z,51.57
2017-12-16T00:14:53.938Z,37.20
2017-12-16T00:17:22.289Z,33.60
2017-12-16T00:19:50.665Z,38.07
2017-12-16T00:22:19.010Z,44.53
2017-12-16T00:24:47.865Z,41.80
2017-12-16T00:27:16.257Z,35.70
2017-12-16T00:29:46.289Z,40.97
2017-12-16T00:32:14.738Z,40.63
2017-12-16T00:34:43.116Z,45.07
2017-12-16T00:37:11.473Z,36.07
2017-12-16T00:39:39.873Z,42.23
2017-12-16T00:42:08.260Z,43.60
2017-12-16T00:44:36.633Z,44.93
2017-12-16T00:47:04.993Z,42.50
2017-12-16T00:49:33.378Z,40.73
2017-12-16T00:52:01.729Z,32.57
2017-12-16T00:54:30.077Z,35.50
2017-12-16T00:56:58.443Z,49.13
2017-12-16T00:59:26.816Z,48.67
2017-12-16T01:01:55.192Z,45.30
2017-12-16T01:04:23.575Z,39.10
2017-12-16T01:06:51.934Z,44.30
2017-12-16T01:09:20.323Z,45.97
2017-12-16T01:11:48.691Z,45.60
2017-12-16T01:14:17.036Z,41.17
2017-12-16T01:16:45.401Z,40.53
2017-12-16T01:19:14.180Z,42.33
2017-12-16T01:21:42.941Z,47.37
2017-12-16T01:24:11.323Z,38.63
2017-12-16T01:26:39.796Z,50.90
2017-12-16T01:29:08.184Z,47.90
2017-12-16T01:31:36.545Z,45.27
2017-12-16T01:37:32.672Z,44.77
2017-12-16T01:40:01.079Z,45.10
2017-12-16T01:42:29.492Z,50.20
2017-12-16T01:44:58.246Z,45.90
2017-12-16T01:47:26.629Z,49.50
2017-12-16T01:49:55.001Z,45.17
2017-12-16T01:52:23.376Z,45.37
2017-12-16T01:54:51.996Z,50.63
2017-12-16T01:57:20.923Z,61.17
2017-12-16T01:59:49.433Z,51.43
2017-12-16T02:02:17.795Z,53.00
2017-12-16T02:04:46.194Z,44.93
2017-12-16T02:07:14.557Z,46.83
2017-12-16T02:09:42.927Z,55.13
2017-12-16T02:12:11.328Z,56.50
2017-12-16T02:14:39.704Z,51.00
2017-12-16T02:17:08.084Z,44.53
2017-12-16T02:19:36.441Z,45.63
2017-12-16T02:22:04.821Z,50.93
2017-12-16T02:24:33.293Z,51.87
2017-12-16T02:27:01.653Z,53.77
2017-12-16T02:29:30.490Z,55.00
2017-12-16T02:31:58.871Z,54.03
2017-12-16T02:34:27.221Z,38.87
2017-12-16T02:36:56.550Z,38.57
2017-12-16T02:39:24.936Z,38.53
2017-12-16T02:41:53.416Z,38.97
2017-12-16T02:44:21.760Z,44.10
2017-12-16T02:46:50.138Z,45.73
2017-12-16T02:49:18.562Z,46.23
2017-12-16T02:51:46.881Z,51.13
2017-12-16T02:54:15.256Z,46.83
2017-12-16T02:56:44.009Z,53.27
2017-12-16T02:59:12.363Z,46.13
2017-12-16T03:01:40.744Z,41.77
2017-12-16T03:04:09.120Z,48.67
2017-12-16T03:06:37.470Z,45.70
2017-12-16T03:09:05.853Z,46.30
2017-12-16T03:11:34.213Z,35.93
2017-12-16T03:14:02.960Z,47.73
2017-12-16T03:16:31.433Z,40.00
2017-12-16T03:18:59.812Z,45.97
2017-12-16T03:21:28.153Z,49.97
2017-12-16T03:23:56.600Z,53.23
2017-12-16T03:26:25.051Z,42.93
2017-12-16T03:28:53.392Z,52.70
2017-12-16T03:31:21.762Z,50.00
2017-12-16T03:33:50.114Z,52.90
2017-12-16T03:36:18.465Z,50.77
2017-12-16T03:38:46.836Z,39.93
2017-12-16T03:41:15.180Z,44.37
2017-12-16T03:43:43.637Z,49.17
2017-12-16T03:46:11.996Z,51.80
2017-12-16T03:48:40.339Z,48.17
2017-12-16T03:51:08.704Z,52.93
2017-12-16T03:53:37.057Z,48.60
2017-12-16T03:56:05.904Z,45.33
2017-12-16T03:58:34.284Z,61.20
2017-12-16T04:01:02.666Z,46.03
2017-12-16T04:03:31.032Z,50.60
2017-12-16T04:05:59.386Z,49.00
2017-12-16T04:08:27.753Z,54.63
2017-12-16T04:10:56.100Z,50.87
2017-12-16T04:13:24.440Z,51.90
2017-12-16T04:15:52.797Z,60.53
2017-12-16T04:18:21.147Z,46.20
2017-12-16T04:20:50.066Z,51.73
2017-12-16T04:23:18.884Z,46.03
2017-12-16T04:25:47.733Z,52.63
2017-12-16T04:28:16.088Z,51.50
2017-12-16T04:30:44.428Z,52.40
2017-12-16T04:33:12.813Z,52.30
2017-12-16T04:35:41.160Z,52.63
2017-12-16T04:38:09.510Z,52.53
2017-12-16T04:40:38.257Z,51.03
2017-12-16T04:43:06.625Z,45.57
2017-12-16T04:45:35.802Z,48.97
2017-12-16T04:48:04.148Z,40.47
2017-12-16T04:50:32.992Z,46.73
2017-12-16T04:53:01.361Z,41.63
2017-12-16T04:55:29.756Z,55.20
2017-12-16T04:57:58.144Z,48.33
2017-12-16T05:00:26.514Z,51.73
2017-12-16T05:02:54.884Z,44.10
2017-12-16T05:05:23.247Z,50.17
2017-12-16T05:07:51.616Z,46.90
2017-12-16T05:10:20.022Z,52.43
2017-12-16T05:12:48.368Z,55.43
2017-12-16T05:15:16.728Z,55.53
2017-12-16T05:17:45.166Z,55.87
2017-12-16T05:20:13.525Z,53.03
2017-12-16T05:22:41.899Z,47.10
2017-12-16T05:25:10.261Z,39.33
2017-12-16T05:27:38.604Z,50.97
2017-12-16T05:30:06.961Z,50.63
2017-12-16T05:32:35.325Z,49.57
2017-12-16T05:35:03.713Z,48.60
2017-12-16T05:37:32.083Z,51.57
2017-12-16T05:40:00.468Z,53.30
2017-12-16T05:42:28.855Z,47.03
2017-12-16T05:44:57.203Z,44.33
2017-12-16T05:47:25.568Z,46.77
2017-12-16T05:49:53.923Z,54.43
2017-12-16T05:52:22.769Z,50.43
2017-12-16T05:54:51.127Z,45.73
2017-12-16T05:57:19.472Z,60.30
2017-12-16T05:59:48.321Z,47.70
2017-12-16T06:02:16.678Z,54.50
2017-12-16T06:04:45.081Z,49.10
2017-12-16T06:07:13.479Z,47.50
2017-12-16T06:09:41.816Z,55.40
2017-12-16T06:12:10.208Z,45.80
2017-12-16T06:14:38.560Z,42.90
2017-12-16T06:17:06.973Z,48.70
2017-12-16T06:19:35.328Z,49.20
2017-12-16T06:22:03.731Z,51.23
2017-12-16T06:24:32.104Z,50.43
2017-12-16T06:27:00.453Z,55.00
2017-12-16T06:29:28.816Z,49.70
2017-12-16T06:31:57.656Z,52.43
2017-12-16T06:34:26.027Z,43.27
2017-12-16T06:36:54.432Z,45.10
2017-12-16T06:39:22.789Z,44.20
2017-12-16T06:41:51.140Z,49.37
2017-12-16T06:44:19.582Z,49.67
2017-12-16T06:46:47.933Z,48.43
2017-12-16T06:49:16.309Z,39.83
2017-12-16T06:51:44.662Z,42.43
2017-12-16T06:54:13.043Z,46.37
2017-12-16T06:56:41.431Z,44.97
2017-12-16T06:59:09.787Z,43.60
2017-12-16T07:01:38.156Z,43.73
2017-12-16T07:04:06.585Z,45.73
2017-12-16T07:06:34.924Z,41.57
2017-12-16T07:09:03.911Z,46.67
2017-12-16T07:11:32.275Z,47.63
2017-12-16T07:14:01.204Z,57.10
2017-12-16T07:16:29.544Z,42.30
2017-12-16T07:18:58.337Z,44.70
2017-12-16T07:21:26.857Z,56.53
2017-12-16T07:23:55.200Z,48.93
2017-12-16T07:26:23.565Z,59.63
2017-12-16T07:28:52.413Z,47.90
2017-12-16T07:31:20.762Z,49.27
2017-12-16T07:33:49.155Z,49.47
2017-12-16T07:36:17.529Z,45.60
2017-12-16T07:38:45.932Z,51.07
2017-12-16T07:41:14.288Z,55.43
2017-12-16T07:43:42.696Z,55.03
2017-12-16T07:46:11.056Z,51.40
2017-12-16T07:48:39.400Z,57.43
2017-12-16T07:51:07.837Z,55.23
2017-12-16T07:53:36.182Z,55.37
2017-12-16T07:56:04.573Z,56.53
2017-12-16T07:58:33.030Z,42.53
2017-12-16T08:01:01.383Z,52.17
2017-12-16T08:03:29.745Z,47.37
2017-12-16T08:05:58.109Z,54.27
2017-12-16T08:08:26.456Z,45.20
2017-12-16T08:10:54.849Z,49.53
2017-12-16T08:13:23.259Z,37.73
2017-12-16T08:15:51.758Z,38.90
2017-12-16T08:18:30.310Z,42.07
2017-12-16T08:20:58.660Z,45.63
2017-12-16T08:23:27.031Z,46.90
2017-12-16T08:25:55.772Z,42.43
2017-12-16T08:28:24.114Z,39.60
2017-12-16T08:30:52.531Z,42.43
2017-12-16T08:33:20.880Z,39.10
2017-12-16T08:35:49.262Z,45.87
2017-12-16T08:38:17.648Z,41.37
2017-12-16T08:40:46.010Z,47.20
2017-12-16T08:43:14.364Z,42.57
2017-12-16T08:45:43.197Z,52.77
2017-12-16T08:48:11.589Z,40.93
2017-12-16T08:50:39.939Z,49.47
2017-12-16T08:53:08.339Z,38.50
2017-12-16T08:55:36.689Z,42.40
2017-12-16T08:58:05.072Z,45.93
2017-12-16T09:00:33.435Z,46.57
2017-12-16T09:03:02.263Z,44.23
2017-12-16T09:05:30.621Z,41.80
2017-12-16T09:07:58.991Z,37.10
2017-12-16T09:10:27.331Z,41.40
2017-12-16T09:12:55.706Z,42.43
2017-12-16T09:15:24.056Z,40.87
2017-12-16T09:17:52.420Z,42.00
2017-12-16T09:20:21.659Z,36.37
2017-12-16T09:22:50.019Z,40.97
2017-12-16T09:25:19.228Z,39.10
2017-12-16T09:27:47.595Z,36.43
2017-12-16T09:30:15.941Z,39.30
2017-12-16T09:32:44.301Z,39.00
2017-12-16T09:35:13.127Z,38.10
2017-12-16T09:37:41.520Z,41.67
2017-12-16T09:40:09.896Z,38.43
2017-12-16T09:42:38.235Z,32.63
2017-12-16T09:45:06.652Z,38.40
2017-12-16T09:47:35.054Z,84.43
2017-12-16T09:50:03.470Z,39.53
2017-12-16T09:52:31.820Z,34.00
2017-12-16T09:55:00.187Z,46.63
2017-12-16T09:57:28.699Z,41.10
2017-12-16T09:59:57.023Z,44.50
2017-12-16T10:02:25.391Z,38.20
2017-12-16T10:04:53.779Z,36.60
2017-12-16T10:07:22.172Z,39.70
2017-12-16T10:09:50.513Z,44.57
2017-12-16T10:12:18.920Z,46.17
2017-12-16T10:14:47.277Z,37.07
2017-12-16T10:17:15.619Z,47.17
2017-12-16T10:19:44.053Z,46.47
2017-12-16T10:22:12.429Z,42.83
2017-12-16T10:24:40.857Z,47.23
2017-12-16T10:27:09.607Z,51.23
2017-12-16T10:29:37.955Z,52.83
2017-12-16T10:32:06.318Z,49.37
2017-12-16T10:34:34.667Z,52.90
2017-12-16T10:37:03.035Z,53.47
2017-12-16T10:39:31.387Z,41.80
2017-12-16T10:41:59.719Z,58.90
2017-12-16T10:44:28.459Z,57.50
2017-12-16T10:46:56.828Z,62.23
2017-12-16T10:49:25.202Z,59.53
2017-12-16T10:51:53.547Z,58.83
2017-12-16T10:54:22.291Z,57.53
2017-12-16T10:56:50.659Z,63.50
2017-12-16T10:59:19.017Z,61.57
2017-12-16T11:01:47.452Z,56.80
2017-12-16T11:04:15.813Z,66.30
2017-12-16T11:06:44.160Z,56.33
2017-12-16T11:09:12.499Z,60.33
2017-12-16T11:11:41.338Z,60.20
2017-12-16T11:14:09.679Z,61.83
2017-12-16T11:16:38.142Z,61.37
2017-12-16T11:19:06.993Z,56.50
2017-12-16T11:21:35.352Z,59.57
2017-12-16T11:24:03.695Z,56.93
2017-12-16T11:26:32.468Z,52.97
2017-12-16T11:29:00.816Z,52.27
2017-12-16T11:31:29.159Z,50.13
2017-12-16T11:33:57.516Z,60.20
2017-12-16T11:36:25.855Z,51.63
2017-12-16T11:38:54.341Z,39.30
2017-12-16T11:41:22.713Z,43.30
2017-12-16T11:43:51.069Z,48.23
2017-12-16T11:46:19.456Z,49.57
2017-12-16T11:48:47.830Z,43.63
2017-12-16T11:51:16.164Z,42.03
2017-12-16T11:53:44.894Z,43.57
2017-12-16T11:56:13.263Z,46.20
2017-12-16T11:58:41.605Z,34.73
2017-12-16T12:01:10.459Z,43.23
2017-12-16T12:03:38.930Z,39.40
2017-12-16T12:06:07.340Z,37.47
2017-12-16T12:08:35.720Z,36.03
2017-12-16T12:11:04.067Z,38.97
2017-12-16T12:13:32.414Z,43.10
2017-12-16T12:16:00.772Z,43.80
2017-12-16T12:18:29.195Z,37.23
2017-12-16T12:20:57.546Z,50.20
2017-12-16T12:23:25.905Z,48.57
2017-12-16T12:25:54.740Z,46.87
2017-12-16T12:28:23.100Z,64.93
2017-12-16T12:30:51.497Z,36.33
2017-12-16T12:33:19.852Z,41.03
2017-12-16T12:35:48.200Z,38.43
2017-12-16T12:38:16.545Z,41.80
2017-12-16T12:40:44.900Z,46.97
2017-12-16T12:43:13.276Z,53.63
2017-12-16T12:45:41.616Z,44.10
2017-12-16T12:48:10.052Z,47.70
2017-12-16T12:50:38.395Z,44.37
2017-12-16T12:53:06.753Z,50.33
2017-12-16T12:55:35.097Z,46.23
2017-12-16T12:58:03.458Z,41.87
2017-12-16T13:00:31.788Z,41.27
2017-12-16T13:03:00.229Z,43.93
2017-12-16T13:05:28.590Z,50.20
2017-12-16T13:07:56.980Z,43.70
2017-12-16T13:10:25.346Z,47.90
2017-12-16T13:12:53.853Z,52.50
2017-12-16T13:15:22.240Z,67.87
2017-12-16T13:17:50.916Z,45.37
2017-12-16T13:20:19.367Z,45.33
2017-12-16T13:22:47.745Z,51.93
2017-12-16T13:25:16.144Z,49.67
2017-12-16T13:27:44.515Z,56.60
2017-12-16T13:30:12.870Z,51.70
2017-12-16T13:32:41.248Z,55.20
2017-12-16T13:35:09.608Z,47.90
2017-12-16T13:37:38.351Z,54.93
2017-12-16T13:40:06.750Z,62.83
2017-12-16T13:42:35.135Z,54.87
2017-12-16T13:45:03.694Z,50.80
2017-12-16T13:47:32.071Z,64.93
2017-12-16T13:50:00.408Z,53.73
2017-12-16T13:52:28.851Z,56.23
2017-12-16T13:54:57.316Z,71.33
2017-12-16T13:57:25.656Z,52.40
2017-12-16T13:59:54.017Z,56.83
2017-12-16T14:02:22.365Z,60.77
2017-12-16T14:04:50.715Z,57.73
2017-12-16T14:07:19.077Z,61.00
2017-12-16T14:09:47.552Z,47.47
2017-12-16T14:12:15.892Z,54.17
2017-12-16T14:14:44.256Z,57.80
2017-12-16T14:17:12.617Z,60.43
2017-12-16T14:19:40.972Z,59.50
2017-12-16T14:22:09.339Z,63.80
2017-12-16T14:24:37.815Z,76.40
2017-12-16T14:27:06.169Z,72.33
2017-12-16T14:29:34.916Z,81.47
2017-12-16T14:32:03.272Z,62.03
2017-12-16T14:34:31.630Z,62.17
2017-12-16T14:37:00.116Z,75.03
2017-12-16T14:39:28.543Z,69.47
2017-12-16T14:41:56.895Z,58.70
2017-12-16T14:44:25.252Z,60.33
2017-12-16T14:46:53.607Z,57.97
2017-12-16T14:49:22.365Z,54.70
2017-12-16T14:51:50.829Z,41.83
2017-12-16T14:54:19.176Z,56.37
2017-12-16T14:56:47.560Z,52.07
2017-12-16T14:59:16.018Z,54.03
2017-12-16T15:01:44.869Z,54.50
2017-12-16T15:04:13.232Z,60.67
2017-12-16T15:06:41.609Z,53.60
2017-12-16T15:09:09.968Z,50.07
2017-12-16T15:11:38.341Z,56.67
2017-12-16T15:14:06.699Z,48.17
2017-12-16T15:16:35.543Z,47.43
2017-12-16T15:19:04.015Z,53.03
2017-12-16T15:21:32.416Z,55.07
2017-12-16T15:24:00.849Z,44.10
2017-12-16T15:26:29.381Z,47.17
2017-12-16T15:28:57.732Z,44.53
2017-12-16T15:31:26.125Z,53.17
2017-12-16T15:33:54.475Z,46.03
2017-12-16T15:36:22.242Z,46.33
2017-12-16T15:38:50.679Z,46.97
2017-12-16T15:41:19.134Z,41.60
2017-12-16T15:43:47.499Z,41.63
2017-12-16T15:46:16.084Z,41.50
2017-12-16T15:48:44.434Z,40.90
2017-12-16T15:51:12.851Z,41.87
2017-12-16T15:53:41.228Z,50.70
2017-12-16T15:56:09.568Z,47.33
2017-12-16T15:58:37.925Z,40.60
2017-12-16T16:01:06.664Z,36.33
2017-12-16T16:03:35.070Z,45.13
2017-12-16T16:06:03.540Z,42.53
2017-12-16T16:08:31.970Z,54.13
2017-12-16T16:11:00.278Z,45.20
2017-12-16T16:13:28.703Z,42.83
2017-12-16T16:15:57.223Z,44.53
2017-12-16T16:18:25.563Z,43.43
2017-12-16T16:20:54.423Z,36.17
2017-12-16T16:23:22.795Z,72.63
2017-12-16T16:25:51.149Z,42.30
2017-12-16T16:28:19.503Z,40.67
2017-12-16T16:30:48.264Z,54.23
2017-12-16T16:33:16.635Z,43.63
2017-12-16T16:35:44.998Z,49.40
2017-12-16T16:38:13.348Z,51.27
2017-12-16T16:40:41.701Z,53.90
2017-12-16T16:43:10.447Z,48.43
2017-12-16T16:45:38.920Z,49.37
2017-12-16T16:48:07.295Z,48.77
2017-12-16T16:50:35.679Z,43.73
2017-12-16T16:53:04.040Z,60.70
2017-12-16T16:55:32.398Z,49.47
2017-12-16T16:58:00.787Z,39.50
2017-12-16T17:00:29.123Z,49.53
2017-12-16T17:02:57.490Z,42.27
2017-12-16T17:05:25.859Z,46.57
2017-12-16T17:07:54.212Z,48.23
2017-12-16T17:10:22.572Z,48.50
2017-12-16T17:12:50.920Z,51.17
2017-12-16T17:15:19.768Z,45.63
2017-12-16T17:17:48.111Z,48.23
2017-12-16T17:20:16.471Z,50.63
2017-12-16T17:22:45.243Z,45.60
2017-12-16T17:25:13.694Z,40.47
2017-12-16T17:27:42.339Z,41.20
2017-12-16T17:30:10.736Z,39.13
2017-12-16T17:32:39.074Z,55.73
2017-12-16T17:35:07.511Z,39.80
2017-12-16T17:37:35.959Z,37.73
2017-12-16T17:40:04.372Z,43.70
2017-12-16T17:42:32.724Z,42.77
2017-12-16T17:45:01.122Z,48.47
2017-12-16T17:47:29.512Z,45.47
2017-12-16T17:49:57.860Z,39.77
2017-12-16T17:52:25.501Z,43.60
2017-12-16T17:54:54.251Z,48.00
2017-12-16T17:57:22.601Z,40.43
2017-12-16T17:59:50.957Z,40.30
2017-12-16T18:02:19.780Z,42.10
2017-12-16T18:04:48.119Z,32.00
2017-12-16T18:07:16.471Z,36.50
2017-12-16T18:09:44.820Z,43.80
2017-12-16T18:12:13.184Z,37.93
2017-12-16T18:14:41.537Z,30.23
2017-12-16T18:17:09.951Z,40.40
2017-12-16T18:19:38.332Z,30.00
2017-12-16T18:22:06.718Z,25.50
2017-12-16T18:24:35.072Z,35.67
2017-12-16T18:27:03.429Z,37.00
2017-12-16T18:29:32.186Z,32.07
2017-12-16T18:34:34.169Z,62.80
2017-12-16T18:37:02.620Z,49.53
2017-12-16T18:39:30.991Z,45.20
2017-12-16T18:41:59.348Z,56.97
2017-12-16T18:44:27.695Z,111.67
2017-12-16T18:46:56.518Z,76.73
2017-12-16T18:49:24.868Z,104.00
2017-12-16T18:51:53.611Z,69.93
2017-12-16T18:54:21.974Z,45.63
2017-12-16T18:56:50.330Z,60.40
2017-12-16T18:59:18.687Z,87.33
2017-12-16T19:01:47.530Z,66.93
2017-12-16T19:04:15.882Z,38.20
2017-12-16T19:06:44.296Z,51.30
2017-12-16T19:09:12.655Z,35.93
2017-12-16T19:11:41.024Z,38.90
2017-12-16T19:14:09.391Z,45.40
2017-12-16T19:16:37.740Z,48.83
2017-12-16T19:19:06.488Z,31.40
2017-12-16T19:21:34.861Z,35.53
2017-12-16T19:24:03.274Z,38.87
2017-12-16T19:26:31.632Z,31.83
2017-12-16T19:29:00.009Z,28.13
2017-12-16T19:31:28.368Z,39.43
2017-12-16T19:33:56.798Z,29.23
2017-12-16T19:36:25.244Z,31.77
2017-12-16T19:38:53.591Z,34.20
2017-12-16T19:41:21.950Z,34.77
2017-12-16T19:43:50.684Z,37.03
2017-12-16T19:46:19.051Z,30.73
2017-12-16T19:48:47.410Z,30.93
2017-12-16T19:51:15.821Z,24.33
2017-12-16T19:53:44.184Z,29.30
2017-12-16T19:56:12.576Z,36.17
2017-12-16T19:58:40.924Z,28.77
2017-12-16T20:01:09.272Z,22.97
2017-12-16T20:03:37.723Z,35.17
2017-12-16T20:06:06.088Z,29.60
2017-12-16T20:08:34.448Z,32.70
2017-12-16T20:11:02.852Z,37.63
2017-12-16T20:13:31.203Z,30.70
2017-12-16T20:15:59.551Z,38.03
2017-12-16T20:18:28.316Z,27.63
2017-12-16T20:20:56.658Z,32.47
2017-12-16T20:23:25.000Z,39.80
2017-12-16T20:25:53.750Z,30.77
2017-12-16T20:28:22.111Z,42.87
2017-12-16T20:30:50.592Z,38.20
2017-12-16T20:33:18.938Z,41.87
2017-12-16T20:35:47.284Z,36.23
2017-12-16T20:38:15.641Z,37.77
2017-12-16T20:40:44.007Z,39.00
2017-12-16T20:43:12.385Z,39.07
2017-12-16T20:45:40.743Z,45.83
2017-12-16T20:48:09.140Z,35.93
2017-12-16T20:50:37.504Z,38.10
2017-12-16T20:53:05.896Z,34.43
2017-12-16T20:55:34.269Z,41.93
2017-12-16T20:58:02.624Z,31.20
2017-12-16T21:00:30.987Z,47.37
2017-12-16T21:02:59.733Z,38.20
2017-12-16T21:05:28.085Z,45.97
2017-12-16T21:07:56.480Z,40.30
2017-12-16T21:10:24.857Z,42.33
2017-12-16T21:12:53.196Z,41.80
2017-12-16T21:15:22.024Z,37.47
2017-12-16T21:17:50.367Z,37.27
2017-12-16T21:20:19.303Z,30.77
2017-12-16T21:22:47.785Z,34.33
2017-12-16T21:25:16.150Z,31.47
2017-12-16T21:27:44.676Z,31.40
2017-12-16T21:30:13.019Z,38.67
2017-12-16T21:32:41.380Z,27.20
2017-12-16T21:35:09.775Z,28.83
2017-12-16T21:37:38.269Z,24.53
2017-12-16T21:40:06.628Z,30.70
2017-12-16T21:42:34.985Z,24.57
2017-12-16T21:45:03.433Z,37.03
2017-12-16T21:47:31.777Z,31.23
2017-12-16T21:50:00.128Z,23.50
2017-12-16T21:52:28.496Z,25.20
2017-12-16T21:54:56.912Z,27.20
2017-12-16T21:57:25.441Z,22.67
2017-12-16T21:59:54.172Z,20.20
2017-12-16T22:02:22.522Z,28.10
2017-12-16T22:04:50.889Z,24.77
2017-12-16T22:07:19.639Z,21.30
2017-12-16T22:09:48.004Z,24.83
2017-12-16T22:12:16.356Z,23.10
2017-12-16T22:14:44.758Z,20.83
2017-12-16T22:17:13.133Z,23.43
2017-12-16T22:19:41.512Z,28.00
2017-12-16T22:22:09.867Z,17.60
2017-12-16T22:24:38.218Z,21.80
2017-12-16T22:27:07.033Z,23.07
2017-12-16T22:29:35.431Z,19.17
2017-12-16T22:32:03.796Z,19.17
2017-12-16T22:34:32.296Z,24.23
2017-12-16T22:37:01.044Z,20.00
2017-12-16T22:39:29.877Z,18.77
2017-12-16T22:41:58.224Z,27.63
2017-12-16T22:44:26.629Z,22.67
2017-12-16T22:46:55.026Z,17.63
2017-12-16T22:49:23.384Z,19.90
2017-12-16T22:51:51.846Z,20.53
2017-12-16T22:54:20.231Z,20.60
2017-12-16T22:56:48.577Z,17.10
2017-12-16T22:59:17.315Z,21.60
2017-12-16T23:01:45.659Z,24.50
2017-12-16T23:04:14.028Z,18.50
2017-12-16T23:06:42.823Z,21.27
2017-12-16T23:09:11.286Z,17.23
2017-12-16T23:11:39.665Z,23.40
2017-12-16T23:14:08.421Z,24.53
2017-12-16T23:16:36.780Z,19.40
2017-12-16T23:19:05.133Z,16.27
2017-12-16T23:21:33.547Z,17.63
2017-12-16T23:24:01.920Z,18.07
2017-12-16T23:26:30.265Z,14.03
2017-12-16T23:28:58.692Z,14.13
2017-12-16T23:31:27.047Z,15.30
2017-12-16T23:33:55.395Z,19.83
2017-12-16T23:36:23.810Z,20.83
2017-12-16T23:38:52.154Z,15.00
2017-12-16T23:41:20.996Z,23.70
2017-12-16T23:43:49.355Z,12.47
2017-12-16T23:46:17.699Z,12.03
2017-12-16T23:48:46.184Z,13.20
2017-12-16T23:51:14.525Z,11.00
2017-12-16T23:53:42.973Z,13.17
2017-12-16T23:56:11.316Z,10.10
2017-12-16T23:58:40.061Z,13.83
